Station Historical Data
Daily Summary for August 15, 2017 Units:  English    Metric   Both
« Previous Day
Next Day »
Daily Weekly Monthly Yearly Custom
  High: Low: Average:
Temperature: 79.8 °F 61.6 °F 70.4 °F
Dew Point: 68.7 °F 57.1 °F 63.7 °F
Humidity: 93% 66% 80%
Wind Speed: 9.0mph 0.0mph 1.5mph
Wind Gust: 14.0mph - -
Wind- - WSW
Pressure: 29.93 in 29.83 in -
Precipitation: 0.00 in    
Historical Graphs
 
 
Tabular Data for August 15, 2017
Time Temperature Dew Point Pressure Wind Wind Speed Wind Gust Humidity Rainfall Rate (Hourly)
00:04 68.0 °F 60.2 °F 29.85 in Calm     76% 0.00 in
00:09 67.7 °F 59.9 °F 29.84 in Calm     76% 0.00 in
00:14 67.5 °F 59.7 °F 29.85 in Calm     76% 0.00 in
00:19 67.1 °F 59.3 °F 29.85 in Calm     76% 0.00 in
00:24 67.0 °F 58.8 °F 29.85 in Calm     75% 0.00 in
00:29 66.9 °F 58.7 °F 29.85 in Calm     75% 0.00 in
00:34 66.7 °F 58.9 °F 29.85 in Calm     76% 0.00 in
00:39 66.5 °F 58.7 °F 29.85 in Calm     76% 0.00 in
00:44 66.2 °F 58.4 °F 29.85 in Calm     76% 0.00 in
00:49 66.1 °F 58.7 °F 29.85 in Calm     77% 0.00 in
00:54 66.1 °F 58.7 °F 29.85 in Calm     77% 0.00 in
00:59 65.8 °F 58.4 °F 29.85 in Calm     77% 0.00 in
01:04 65.6 °F 58.2 °F 29.85 in Calm     77% 0.00 in
01:09 65.5 °F 58.1 °F 29.85 in Calm     77% 0.00 in
01:14 65.4 °F 58.0 °F 29.85 in Calm     77% 0.00 in
01:19 65.3 °F 57.9 °F 29.85 in Calm     77% 0.00 in
01:24 65.2 °F 57.8 °F 29.85 in Calm     77% 0.00 in
01:29 65.2 °F 57.8 °F 29.84 in Calm     77% 0.00 in
01:34 65.1 °F 58.1 °F 29.85 in Calm     78% 0.00 in
01:39 64.8 °F 57.8 °F 29.85 in Calm     78% 0.00 in
01:44 64.8 °F 58.1 °F 29.84 in Calm     79% 0.00 in
01:49 64.8 °F 58.1 °F 29.84 in Calm     79% 0.00 in
01:54 64.6 °F 57.9 °F 29.84 in Calm     79% 0.00 in
01:59 64.4 °F 57.7 °F 29.84 in Calm     79% 0.00 in
02:04 64.2 °F 57.5 °F 29.84 in Calm     79% 0.00 in
02:09 64.0 °F 57.4 °F 29.84 in Calm     79% 0.00 in
02:14 63.8 °F 57.5 °F 29.84 in Calm     80% 0.00 in
02:19 63.7 °F 57.4 °F 29.84 in Calm     80% 0.00 in
02:24 63.7 °F 57.4 °F 29.84 in Calm     80% 0.00 in
02:29 63.5 °F 57.6 °F 29.84 in Calm     81% 0.00 in
02:34 63.4 °F 57.5 °F 29.84 in Calm     81% 0.00 in
02:39 63.2 °F 57.3 °F 29.84 in Calm     81% 0.00 in
02:44 62.9 °F 57.3 °F 29.84 in Calm     82% 0.00 in
02:49 62.8 °F 57.2 °F 29.84 in Calm     82% 0.00 in
02:54 62.7 °F 57.5 °F 29.84 in Calm     83% 0.00 in
02:59 62.4 °F 57.2 °F 29.84 in Calm     83% 0.00 in
03:04 62.3 °F 57.1 °F 29.84 in Calm     83% 0.00 in
03:09 62.1 °F 57.2 °F 29.84 in Calm     84% 0.00 in
03:14 62.0 °F 57.1 °F 29.84 in Calm     84% 0.00 in
03:19 62.0 °F 57.4 °F 29.84 in Calm     85% 0.00 in
03:24 62.0 °F 57.4 °F 29.84 in Calm     85% 0.00 in
03:29 61.9 °F 57.3 °F 29.84 in Calm     85% 0.00 in
03:34 61.8 °F 57.2 °F 29.84 in Calm     85% 0.00 in
03:39 61.8 °F 57.2 °F 29.84 in Calm     85% 0.00 in
03:44 61.8 °F 57.6 °F 29.84 in Calm     86% 0.00 in
03:49 61.7 °F 57.5 °F 29.84 in Calm     86% 0.00 in
03:54 61.7 °F 57.5 °F 29.83 in Calm     86% 0.00 in
03:59 61.8 °F 57.6 °F 29.83 in Calm     86% 0.00 in
04:04 61.9 °F 57.7 °F 29.83 in Calm     86% 0.00 in
04:09 61.9 °F 57.7 °F 29.83 in Calm     86% 0.00 in
04:14 61.9 °F 57.7 °F 29.83 in Calm     86% 0.00 in
04:19 61.8 °F 57.6 °F 29.83 in Calm     86% 0.00 in
04:24 61.7 °F 57.8 °F 29.83 in Calm     87% 0.00 in
04:29 61.8 °F 57.9 °F 29.83 in Calm     87% 0.00 in
04:34 61.9 °F 58.0 °F 29.83 in Calm     87% 0.00 in
04:39 61.9 °F 58.0 °F 29.83 in Calm     87% 0.00 in
04:44 61.9 °F 58.0 °F 29.83 in Calm     87% 0.00 in
04:49 61.9 °F 58.3 °F 29.83 in Calm     88% 0.00 in
04:54 61.9 °F 58.3 °F 29.83 in Calm     88% 0.00 in
04:59 61.9 °F 58.3 °F 29.83 in Calm     88% 0.00 in
05:04 61.9 °F 58.3 °F 29.83 in Calm     88% 0.00 in
05:09 61.8 °F 58.2 °F 29.83 in Calm     88% 0.00 in
05:14 61.8 °F 58.5 °F 29.83 in Calm     89% 0.00 in
05:19 61.7 °F 58.4 °F 29.83 in Calm     89% 0.00 in
05:24 61.6 °F 58.3 °F 29.83 in Calm     89% 0.00 in
05:29 61.6 °F 58.3 °F 29.83 in Calm     89% 0.00 in
05:34 61.6 °F 58.6 °F 29.84 in Calm     90% 0.00 in
05:39 61.9 °F 58.9 °F 29.84 in Calm   5.0 mph 90% 0.00 in
05:44 62.4 °F 59.4 °F 29.84 in Calm   3.0 mph 90% 0.00 in
05:49 62.7 °F 59.7 °F 29.84 in South 1.0 mph 3.0 mph 90% 0.00 in
05:54 62.8 °F 59.8 °F 29.84 in SSW 1.0 mph 3.0 mph 90% 0.00 in
05:59 62.7 °F 59.7 °F 29.84 in Calm   2.0 mph 90% 0.00 in
06:04 62.6 °F 59.6 °F 29.84 in Calm     90% 0.00 in
06:09 62.5 °F 59.5 °F 29.84 in Calm     90% 0.00 in
06:14 62.5 °F 59.5 °F 29.84 in Calm     90% 0.00 in
06:19 62.6 °F 59.6 °F 29.84 in Calm     90% 0.00 in
06:24 62.8 °F 59.8 °F 29.84 in Calm     90% 0.00 in
06:29 62.9 °F 59.9 °F 29.84 in Calm     90% 0.00 in
06:34 63.0 °F 60.0 °F 29.84 in Calm     90% 0.00 in
06:39 63.2 °F 60.5 °F 29.84 in Calm     91% 0.00 in
06:44 63.4 °F 60.7 °F 29.84 in Calm     91% 0.00 in
06:49 63.7 °F 61.0 °F 29.84 in Calm     91% 0.00 in
06:54 63.9 °F 60.9 °F 29.85 in Calm     90% 0.00 in
06:59 63.9 °F 60.9 °F 29.84 in Calm     90% 0.00 in
07:04 64.0 °F 61.0 °F 29.85 in Calm     90% 0.00 in
07:09 64.2 °F 61.2 °F 29.85 in Calm     90% 0.00 in
07:14 64.3 °F 61.3 °F 29.85 in Calm     90% 0.00 in
07:19 64.5 °F 61.5 °F 29.85 in Calm     90% 0.00 in
07:24 65.1 °F 62.1 °F 29.84 in Calm     90% 0.00 in
07:29 65.7 °F 62.7 °F 29.84 in Calm     90% 0.00 in
07:34 66.4 °F 63.1 °F 29.85 in Calm     89% 0.00 in
07:39 66.8 °F 63.1 °F 29.85 in Calm     88% 0.00 in
07:44 67.1 °F 63.4 °F 29.85 in Calm     88% 0.00 in
07:49 67.6 °F 63.6 °F 29.84 in Calm   2.0 mph 87% 0.00 in
07:54 67.9 °F 63.6 °F 29.84 in South 1.0 mph 3.0 mph 86% 0.00 in
07:59 68.0 °F 63.7 °F 29.84 in SSE 2.0 mph 4.0 mph 86% 0.00 in
08:04 68.1 °F 63.4 °F 29.85 in South 1.0 mph 3.0 mph 85% 0.00 in
08:09 68.1 °F 63.8 °F 29.85 in South 1.0 mph 3.0 mph 86% 0.00 in
08:14 68.5 °F 64.1 °F 29.84 in SSW 5.0 mph 5.0 mph 86% 0.00 in
08:19 69.0 °F 64.3 °F 29.84 in South 3.0 mph 6.0 mph 85% 0.00 in
08:24 69.3 °F 63.9 °F 29.84 in SSW 2.0 mph 5.0 mph 83% 0.00 in
08:29 69.9 °F 64.2 °F 29.84 in SW 2.0 mph 5.0 mph 82% 0.00 in
08:34 70.4 °F 64.3 °F 29.84 in South 3.0 mph 6.0 mph 81% 0.00 in
08:39 70.8 °F 64.3 °F 29.84 in South 3.0 mph 7.0 mph 80% 0.00 in
08:44 71.1 °F 64.3 °F 29.84 in South 3.0 mph 7.0 mph 79% 0.00 in
08:49 71.4 °F 64.2 °F 29.84 in SSE 1.0 mph 7.0 mph 78% 0.00 in
08:54 71.8 °F 64.6 °F 29.84 in SSE 3.0 mph 7.0 mph 78% 0.00 in
08:59 72.5 °F 64.5 °F 29.84 in WSW 2.0 mph 6.0 mph 76% 0.00 in
09:04 73.0 °F 65.0 °F 29.84 in SSW 3.0 mph 8.0 mph 76% 0.00 in
09:09 72.9 °F 64.1 °F 29.84 in SSW 3.0 mph 8.0 mph 74% 0.00 in
09:14 72.4 °F 64.0 °F 29.84 in SSW 2.0 mph 8.0 mph 75% 0.00 in
09:19 72.5 °F 64.5 °F 29.84 in SSE 5.0 mph 8.0 mph 76% 0.00 in
09:24 73.6 °F 65.2 °F 29.84 in WSW 4.0 mph 8.0 mph 75% 0.00 in
09:29 74.3 °F 65.5 °F 29.84 in SSW 5.0 mph 7.0 mph 74% 0.00 in
09:34 74.6 °F 65.4 °F 29.84 in SW 2.0 mph 7.0 mph 73% 0.00 in
09:39 75.1 °F 65.5 °F 29.84 in SW 4.0 mph 8.0 mph 72% 0.00 in
09:44 75.6 °F 65.5 °F 29.84 in SW 4.0 mph 8.0 mph 71% 0.00 in
09:49 75.9 °F 65.4 °F 29.84 in South 5.0 mph 10.0 mph 70% 0.00 in
09:54 75.8 °F 65.3 °F 29.83 in WSW 4.0 mph 12.0 mph 70% 0.00 in
09:59 76.1 °F 65.2 °F 29.84 in SW 3.0 mph 10.0 mph 69% 0.00 in
10:04 76.4 °F 65.5 °F 29.84 in SW 2.0 mph 7.0 mph 69% 0.00 in
10:09 76.7 °F 65.8 °F 29.84 in SW 5.0 mph 10.0 mph 69% 0.00 in
10:14 77.0 °F 65.6 °F 29.84 in SW 5.0 mph 10.0 mph 68% 0.00 in
10:19 77.1 °F 66.1 °F 29.84 in SW 5.0 mph 12.0 mph 69% 0.00 in
10:24 77.3 °F 65.5 °F 29.84 in SW 5.0 mph 12.0 mph 67% 0.00 in
10:29 77.2 °F 65.8 °F 29.84 in WSW 6.0 mph 11.0 mph 68% 0.00 in
10:34 77.5 °F 65.7 °F 29.84 in SW 6.0 mph 12.0 mph 67% 0.00 in
10:39 77.5 °F 66.1 °F 29.84 in WSW 6.0 mph 10.0 mph 68% 0.00 in
10:44 77.5 °F 65.7 °F 29.84 in West 3.0 mph 10.0 mph 67% 0.00 in
10:49 78.3 °F 67.3 °F 29.84 in West 4.0 mph 11.0 mph 69% 0.00 in
10:54 77.7 °F 65.4 °F 29.85 in WSW 6.0 mph 13.0 mph 66% 0.00 in
10:59 76.7 °F 65.3 °F 29.85 in West 4.0 mph 9.0 mph 68% 0.00 in
11:04 76.4 °F 65.9 °F 29.85 in WSW 4.0 mph 13.0 mph 70% 0.00 in
11:09 76.1 °F 65.2 °F 29.85 in West 6.0 mph 12.0 mph 69% 0.00 in
11:14 76.0 °F 65.5 °F 29.85 in SW 5.0 mph 12.0 mph 70% 0.00 in
11:19 75.9 °F 65.0 °F 29.85 in SSW 4.0 mph 12.0 mph 69% 0.00 in
11:24 75.9 °F 65.8 °F 29.85 in SW 6.0 mph 12.0 mph 71% 0.00 in
11:29 75.5 °F 64.6 °F 29.85 in SW 6.0 mph 14.0 mph 69% 0.00 in
11:34 75.7 °F 65.2 °F 29.85 in SW 5.0 mph 13.0 mph 70% 0.00 in
11:39 75.9 °F 65.0 °F 29.84 in SW 7.0 mph 13.0 mph 69% 0.00 in
11:44 76.5 °F 66.0 °F 29.84 in WSW 2.0 mph 10.0 mph 70% 0.00 in
11:49 77.2 °F 66.2 °F 29.84 in SW 8.0 mph 8.0 mph 69% 0.00 in
11:54 77.2 °F 65.8 °F 29.84 in West 4.0 mph 10.0 mph 68% 0.00 in
11:59 77.2 °F 65.8 °F 29.84 in West 6.0 mph 6.0 mph 68% 0.00 in
12:04 76.6 °F 65.7 °F 29.84 in WSW 9.0 mph 11.0 mph 69% 0.00 in
12:09 76.8 °F 66.7 °F 29.84 in SW 4.0 mph 9.0 mph 71% 0.00 in
12:14 77.0 °F 66.5 °F 29.85 in WSW 7.0 mph 10.0 mph 70% 0.00 in
12:19 76.6 °F 66.1 °F 29.85 in WSW 5.0 mph 10.0 mph 70% 0.00 in
12:24 75.8 °F 65.7 °F 29.85 in West 5.0 mph 10.0 mph 71% 0.00 in
12:29 74.9 °F 65.7 °F 29.84 in West 4.0 mph 9.0 mph 73% 0.00 in
12:34 74.6 °F 66.5 °F 29.84 in WSW 3.0 mph 7.0 mph 76% 0.00 in
12:39 75.5 °F 67.4 °F 29.84 in West 4.0 mph 6.0 mph 76% 0.00 in
12:44 76.4 °F 67.1 °F 29.84 in SSW 2.0 mph 6.0 mph 73% 0.00 in
12:49 77.8 °F 68.0 °F 29.84 in WSW 3.0 mph 6.0 mph 72% 0.00 in
12:54 78.9 °F 68.3 °F 29.84 in SW 3.0 mph 7.0 mph 70% 0.00 in
12:59 79.0 °F 67.1 °F 29.84 in WSW 4.0 mph 8.0 mph 67% 0.00 in
13:04 78.2 °F 66.8 °F 29.84 in WSW 2.0 mph 8.0 mph 68% 0.00 in
13:09 78.6 °F 67.2 °F 29.84 in SW 5.0 mph 10.0 mph 68% 0.00 in
13:14 78.2 °F 67.2 °F 29.83 in West 2.0 mph 9.0 mph 69% 0.00 in
13:19 77.8 °F 66.8 °F 29.84 in WSW 7.0 mph 11.0 mph 69% 0.00 in
13:24 77.8 °F 67.2 °F 29.83 in WSW 5.0 mph 11.0 mph 70% 0.00 in
13:29 78.0 °F 67.4 °F 29.83 in WSW 5.0 mph 11.0 mph 70% 0.00 in
13:34 77.8 °F 67.2 °F 29.83 in West 5.0 mph 10.0 mph 70% 0.00 in
13:39 77.5 °F 66.9 °F 29.83 in WSW 8.0 mph 10.0 mph 70% 0.00 in
13:44 76.9 °F 66.8 °F 29.84 in SW 5.0 mph 8.0 mph 71% 0.00 in
13:49 76.9 °F 67.2 °F 29.84 in WNW 2.0 mph 9.0 mph 72% 0.00 in
13:54 77.2 °F 67.5 °F 29.84 in WSW 5.0 mph 12.0 mph 72% 0.00 in
13:59 77.4 °F 67.7 °F 29.85 in West 4.0 mph 12.0 mph 72% 0.00 in
14:04 76.8 °F 67.5 °F 29.85 in West 5.0 mph 11.0 mph 73% 0.00 in
14:09 76.7 °F 67.8 °F 29.85 in WSW 4.0 mph 11.0 mph 74% 0.00 in
14:14 75.9 °F 65.0 °F 29.86 in NNW 4.0 mph 8.0 mph 69% 0.00 in
14:19 73.4 °F 63.0 °F 29.87 in NNE 3.0 mph 8.0 mph 70% 0.00 in
14:24 71.9 °F 62.8 °F 29.86 in NW 3.0 mph 8.0 mph 73% 0.00 in
14:29 71.0 °F 63.4 °F 29.86 in NNW 2.0 mph 8.0 mph 77% 0.00 in
14:34 70.6 °F 64.5 °F 29.87 in North 1.0 mph 5.0 mph 81% 0.00 in
14:39 70.5 °F 64.0 °F 29.87 in NNW 1.0 mph 1.0 mph 80% 0.00 in
14:44 71.0 °F 65.2 °F 29.87 in NNW 2.0 mph 3.0 mph 82% 0.00 in
14:49 71.3 °F 65.5 °F 29.87 in NNW 1.0 mph 3.0 mph 82% 0.00 in
14:54 71.2 °F 65.4 °F 29.87 in NNW 2.0 mph 5.0 mph 82% 0.00 in
14:59 71.4 °F 65.3 °F 29.87 in NNW 2.0 mph 5.0 mph 81% 0.00 in
15:04 72.2 °F 66.0 °F 29.87 in NNW 2.0 mph 5.0 mph 81% 0.00 in
15:09 72.7 °F 66.5 °F 29.87 in NNW 1.0 mph 5.0 mph 81% 0.00 in
15:14 73.7 °F 66.4 °F 29.87 in NNW 1.0 mph 6.0 mph 78% 0.00 in
15:19 73.8 °F 66.5 °F 29.87 in NNW 2.0 mph 6.0 mph 78% 0.00 in
15:24 74.1 °F 66.4 °F 29.86 in NNW 2.0 mph 6.0 mph 77% 0.00 in
15:29 74.6 °F 66.5 °F 29.86 in WNW 2.0 mph 4.0 mph 76% 0.00 in
15:34 75.3 °F 66.8 °F 29.87 in Calm   3.0 mph 75% 0.00 in
15:39 75.3 °F 67.2 °F 29.86 in Calm   3.0 mph 76% 0.00 in
15:44 75.8 °F 66.9 °F 29.86 in Calm   2.0 mph 74% 0.00 in
15:49 76.0 °F 67.1 °F 29.86 in Calm   3.0 mph 74% 0.00 in
15:54 76.4 °F 67.1 °F 29.86 in Calm     73% 0.00 in
15:59 76.8 °F 67.9 °F 29.86 in Calm     74% 0.00 in
16:04 76.9 °F 66.8 °F 29.86 in Calm   3.0 mph 71% 0.00 in
16:09 76.8 °F 66.7 °F 29.86 in Calm   4.0 mph 71% 0.00 in
16:14 77.9 °F 66.9 °F 29.86 in Calm   4.0 mph 69% 0.00 in
16:19 78.4 °F 67.4 °F 29.85 in NNW 5.0 mph 7.0 mph 69% 0.00 in
16:24 78.0 °F 67.0 °F 29.85 in WNW 3.0 mph 5.0 mph 69% 0.00 in
16:29 77.7 °F 66.3 °F 29.85 in WNW 2.0 mph 5.0 mph 68% 0.00 in
16:34 78.4 °F 66.5 °F 29.85 in West 2.0 mph 5.0 mph 67% 0.00 in
16:39 78.5 °F 66.2 °F 29.85 in West 2.0 mph 7.0 mph 66% 0.00 in
16:44 78.5 °F 66.2 °F 29.85 in WSW 1.0 mph 6.0 mph 66% 0.00 in
16:49 78.2 °F 65.9 °F 29.85 in SW 3.0 mph 6.0 mph 66% 0.00 in
16:54 78.1 °F 66.2 °F 29.85 in SW 4.0 mph 5.0 mph 67% 0.00 in
16:59 77.8 °F 66.8 °F 29.85 in WNW 1.0 mph 5.0 mph 69% 0.00 in
17:04 77.6 °F 66.2 °F 29.85 in WSW 2.0 mph 5.0 mph 68% 0.00 in
17:09 77.9 °F 66.9 °F 29.84 in West 1.0 mph 5.0 mph 69% 0.00 in
17:14 78.2 °F 66.8 °F 29.84 in Calm   5.0 mph 68% 0.00 in
17:19 78.3 °F 66.4 °F 29.84 in SW 1.0 mph 3.0 mph 67% 0.00 in
17:24 78.9 °F 67.0 °F 29.84 in SW 2.0 mph 2.0 mph 67% 0.00 in
17:29 78.9 °F 67.0 °F 29.85 in Calm   2.0 mph 67% 0.00 in
17:34 79.4 °F 67.0 °F 29.85 in Calm   3.0 mph 66% 0.00 in
17:39 79.8 °F 67.4 °F 29.85 in WSW 1.0 mph 5.0 mph 66% 0.00 in
17:44 79.4 °F 67.0 °F 29.85 in WSW 3.0 mph 5.0 mph 66% 0.00 in
17:49 79.3 °F 67.4 °F 29.85 in SW 3.0 mph 7.0 mph 67% 0.00 in
17:54 78.7 °F 67.2 °F 29.85 in SW 3.0 mph 5.0 mph 68% 0.00 in
17:59 78.4 °F 67.8 °F 29.85 in WNW 2.0 mph 6.0 mph 70% 0.00 in
18:04 77.8 °F 67.2 °F 29.85 in SSW 2.0 mph 6.0 mph 70% 0.00 in
18:09 77.2 °F 67.1 °F 29.85 in SW 3.0 mph 6.0 mph 71% 0.00 in
18:14 77.0 °F 66.9 °F 29.86 in WSW 3.0 mph 6.0 mph 71% 0.00 in
18:19 76.9 °F 67.6 °F 29.86 in SW 3.0 mph 5.0 mph 73% 0.00 in
18:24 76.4 °F 68.3 °F 29.86 in SW 2.0 mph 6.0 mph 76% 0.01 in
18:29 75.7 °F 68.7 °F 29.86 in Calm   4.0 mph 79% 0.02 in
18:34 74.9 °F 68.7 °F 29.86 in West 3.0 mph 4.0 mph 81% 0.05 in
18:39 74.0 °F 68.2 °F 29.86 in WNW 2.0 mph 6.0 mph 82% 0.05 in
18:44 73.0 °F 67.5 °F 29.86 in NW 2.0 mph 6.0 mph 83% 0.05 in
18:49 72.6 °F 67.5 °F 29.87 in NNW 2.0 mph 6.0 mph 84% 0.05 in
18:54 72.3 °F 67.5 °F 29.86 in NNW 2.0 mph 6.0 mph 85% 0.05 in
18:59 72.3 °F 68.2 °F 29.86 in NNW 1.0 mph 4.0 mph 87% 0.05 in
19:04 72.2 °F 67.8 °F 29.86 in Calm   3.0 mph 86% 0.06 in
19:09 72.4 °F 68.0 °F 29.87 in SW 3.0 mph 5.0 mph 86% 0.06 in
19:14 71.9 °F 67.1 °F 29.87 in SSW 3.0 mph 6.0 mph 85% 0.06 in
19:19 71.7 °F 66.6 °F 29.87 in SW 1.0 mph 5.0 mph 84% 0.06 in
19:24 71.8 °F 66.7 °F 29.87 in Calm   2.0 mph 84% 0.05 in
19:29 72.0 °F 66.9 °F 29.87 in SW 1.0 mph 4.0 mph 84% 0.04 in
19:34 72.3 °F 67.2 °F 29.87 in SW 1.0 mph 5.0 mph 84% 0.01 in
19:39 72.5 °F 67.7 °F 29.87 in SW 2.0 mph 5.0 mph 85% 0.01 in
19:44 72.6 °F 67.5 °F 29.87 in SW 1.0 mph 5.0 mph 84% 0.01 in
19:49 72.5 °F 67.4 °F 29.88 in WSW 1.0 mph 3.0 mph 84% 0.01 in
19:54 72.5 °F 67.7 °F 29.88 in WSW 1.0 mph 3.0 mph 85% 0.01 in
19:59 72.4 °F 67.6 °F 29.88 in Calm     85% 0.01 in
20:04 72.2 °F 67.4 °F 29.88 in Calm     85% 0.00 in
20:09 71.9 °F 67.1 °F 29.88 in Calm     85% 0.00 in
20:14 71.5 °F 66.8 °F 29.87 in Calm     85% 0.00 in
20:19 71.4 °F 67.0 °F 29.88 in Calm     86% 0.00 in
20:24 71.2 °F 66.8 °F 29.88 in Calm     86% 0.00 in
20:29 71.0 °F 66.9 °F 29.88 in Calm     87% 0.00 in
20:34 70.7 °F 66.6 °F 29.88 in Calm     87% 0.00 in
20:39 70.4 °F 66.3 °F 29.88 in Calm     87% 0.00 in
20:44 70.1 °F 66.4 °F 29.88 in Calm     88% 0.00 in
20:49 69.9 °F 66.2 °F 29.88 in Calm     88% 0.00 in
20:54 69.9 °F 66.5 °F 29.89 in Calm     89% 0.00 in
20:59 69.8 °F 66.4 °F 29.89 in Calm     89% 0.00 in
21:04 69.6 °F 66.2 °F 29.89 in Calm     89% 0.00 in
21:09 69.5 °F 66.1 °F 29.89 in Calm     89% 0.00 in
21:14 69.3 °F 65.9 °F 29.89 in Calm     89% 0.00 in
21:19 69.2 °F 66.1 °F 29.89 in Calm     90% 0.00 in
21:24 69.0 °F 65.9 °F 29.89 in Calm     90% 0.00 in
21:29 68.8 °F 65.7 °F 29.89 in Calm     90% 0.00 in
21:34 68.8 °F 65.7 °F 29.90 in Calm     90% 0.00 in
21:39 68.7 °F 65.6 °F 29.90 in Calm     90% 0.00 in
21:44 68.7 °F 65.6 °F 29.90 in Calm     90% 0.00 in
21:49 68.6 °F 65.9 °F 29.90 in Calm     91% 0.00 in
21:54 68.6 °F 65.9 °F 29.90 in Calm     91% 0.00 in
21:59 68.4 °F 65.7 °F 29.90 in Calm     91% 0.00 in
22:04 68.2 °F 65.5 °F 29.90 in Calm     91% 0.00 in
22:09 68.1 °F 65.4 °F 29.90 in Calm     91% 0.00 in
22:14 67.9 °F 65.2 °F 29.90 in Calm     91% 0.00 in
22:19 68.0 °F 65.3 °F 29.91 in Calm     91% 0.00 in
22:24 67.8 °F 65.1 °F 29.90 in Calm     91% 0.00 in
22:29 67.7 °F 65.3 °F 29.91 in Calm     92% 0.00 in
22:34 67.7 °F 65.3 °F 29.91 in Calm     92% 0.00 in
22:39 67.6 °F 65.2 °F 29.91 in Calm     92% 0.00 in
22:44 67.6 °F 65.2 °F 29.91 in Calm     92% 0.00 in
22:49 67.4 °F 65.0 °F 29.91 in Calm     92% 0.00 in
22:54 67.6 °F 65.2 °F 29.92 in Calm     92% 0.00 in
22:59 67.6 °F 65.2 °F 29.91 in Calm     92% 0.00 in
23:04 67.7 °F 65.3 °F 29.92 in Calm     92% 0.00 in
23:09 67.5 °F 65.1 °F 29.92 in Calm     92% 0.00 in
23:19 67.4 °F 65.0 °F 29.92 in Calm     92% 0.00 in
23:24 67.3 °F 64.9 °F 29.92 in Calm     92% 0.00 in
23:29 67.3 °F 64.9 °F 29.92 in Calm     92% 0.00 in
23:34 67.2 °F 65.1 °F 29.92 in Calm     93% 0.00 in
23:39 67.6 °F 65.5 °F 29.92 in Calm     93% 0.00 in
23:44 67.6 °F 65.2 °F 29.92 in Calm     92% 0.00 in
23:49 67.4 °F 65.0 °F 29.93 in Calm     92% 0.00 in
23:54 67.1 °F 64.7 °F 29.93 in Calm     92% 0.00 in
23:59 67.1 °F 65.0 °F 29.93 in Calm     93% 0.00 in
Buffalo, New York, USA
Compliments of Weather Underground - 2.5 mb